Airfield :
LOGIN :

Register | Disclaimer

   EN    FR    IT 

 










Legend :    VFR   Marginal VFR   IFR   Intensive IFR   Very Intensive IFR
Visi :
Ceiling :
>= 8 km
>= 3000ft
5 to 8 km
1000 to 3000 ft
1500m to 5 km
500 to 1000 ft
800 to 1500m
200 to 500 ft
< 800m
< 200 ft
Symbols :   Thunderstorms  Fog  Heavy snow  Heavy precipitations  Wind > 20 kt
SIGMETs :     Misc.  Thunderstorms  Icing  Turbulence  Mountain Waves  Volcanic Ashes







- Airport Elevation : 179 ft


LIPI - Rivolto AFB Udine

CURRENT METAR :
  • 180655Z /////KT 0200 FG OVC002 12/09 Q1020

EXPIRED METARs :
  • 180555Z /////KT 0200 FG OVC002 12/09 Q1020 RMK OVC VIS MIN 0200 WIND THR06 27002KT WIND THR24 34002KT RED
  • 180455Z /////KT 0200 FG OVC002 12/09 Q1020 RMK OVC VIS MIN 0200 WIND THR06 04002KT WIND THR24 31001KT RED

TAF TAF LIPI
Valid from the 18 at 06:00 until the 18 at 15:00 UTC


180500Z 1806/1815 VRB03KT 0200 FG BKN002
TEMPO 1806/1809 2000 BR NSC
BECMG 1809/1811 05005KT 8000 BKN040
No reported NOTAMs for that airfield.



MET'MAP, your aeronautical weather chart ! - Copyright ORBIFLY December 2007 - Disclaimer

ORBIFLY MET'MAP TEAM :

Programming & Development : Alexandra Zaïnal
Concept & Development : Baudouin d'Aumeries
Co-Development & Prog : Marc-Olivier Méhu
Technical & hardware support : Manuel Goepfert

Contact : metmap@orbifly.com




SOURCES & CREDITS :

   NOAA